Time;durP1;ratioP1;P1;durP2;ratioP2;P2;SDS_P1;SDS_P2;PMS_P1;PMS_P2;Temp;Humidity;BMP_temperature;BMP_pressure;BME280_temperature;BME280_humidity;BME280_pressure;Samples;Min_cycle;Max_cycle;Signal;HPM_P1;HPM_P2
2023/05/08 00:00:16;;;;;;;1999.90;999.90;;;;;;;15.89;100.00;95416.28;5007618;28;20197;-67
2023/05/08 00:02:41;;;;;;;1999.90;999.90;;;;;;;15.81;100.00;95419.69;5007773;28;20213;-67
2023/05/08 00:05:07;;;;;;;1999.90;999.90;;;;;;;15.81;100.00;95425.97;5007431;28;20201;-67
2023/05/08 00:07:32;;;;;;;1999.90;999.90;;;;;;;15.83;100.00;95423.56;5007212;28;20203;-67
2023/05/08 00:09:57;;;;;;;1999.90;999.90;;;;;;;15.73;100.00;95421.88;5007839;28;20193;-67
2023/05/08 00:12:23;;;;;;;1999.90;999.90;;;;;;;15.65;100.00;95428.78;5007823;28;20207;-66
2023/05/08 00:14:48;;;;;;;1999.90;999.90;;;;;;;15.63;100.00;95435.94;5007678;28;20187;-66
2023/05/08 00:17:13;;;;;;;1999.90;999.90;;;;;;;15.62;100.00;95429.63;5010706;28;20201;-67
2023/05/08 00:19:39;;;;;;;1999.90;999.90;;;;;;;15.60;100.00;95443.09;5011335;28;20187;-67
2023/05/08 00:22:04;;;;;;;1999.90;999.90;;;;;;;15.50;100.00;95440.59;5011535;28;20190;-67
2023/05/08 00:24:29;;;;;;;1999.90;999.90;;;;;;;15.51;100.00;95451.16;5011623;28;20183;-67
2023/05/08 00:26:55;;;;;;;1999.90;999.90;;;;;;;15.51;100.00;95459.44;5011455;28;20222;-67
2023/05/08 00:29:20;;;;;;;1999.90;999.90;;;;;;;15.51;100.00;95466.91;5011663;28;20270;-67
2023/05/08 00:31:45;;;;;;;1999.90;999.90;;;;;;;15.43;100.00;95465.53;5011240;28;20230;-66
2023/05/08 00:34:11;;;;;;;1999.90;999.90;;;;;;;15.34;100.00;95474.38;5011006;28;20201;-67
2023/05/08 00:36:36;;;;;;;1999.90;999.90;;;;;;;15.33;100.00;95466.56;5010874;28;20191;-67
2023/05/08 00:39:02;;;;;;;1999.90;999.90;;;;;;;15.31;100.00;95464.25;5011120;28;20191;-66
2023/05/08 00:41:27;;;;;;;1999.90;999.90;;;;;;;15.26;100.00;95475.00;5011069;28;20191;-65
2023/05/08 00:43:52;;;;;;;1999.90;999.90;;;;;;;15.27;100.00;95468.31;5010911;28;20207;-67
2023/05/08 00:46:18;;;;;;;1999.90;999.90;;;;;;;15.24;100.00;95458.94;5010830;28;20210;-67
2023/05/08 00:48:44;;;;;;;1999.90;999.90;;;;;;;15.28;100.00;95458.84;5010788;28;20266;-66
2023/05/08 00:51:10;;;;;;;1999.90;999.90;;;;;;;15.18;100.00;95468.91;5010939;28;20179;-66
2023/05/08 00:53:39;;;;;;;1999.90;999.90;;;;;;;15.19;100.00;95462.19;5010817;28;20249;-67
2023/05/08 00:56:09;;;;;;;1999.90;999.90;;;;;;;15.14;100.00;95465.47;5010578;28;20191;-67
2023/05/08 00:58:34;;;;;;;1999.90;999.90;;;;;;;15.08;100.00;95466.41;5010534;28;20229;-68
2023/05/08 01:01:00;;;;;;;1999.90;999.90;;;;;;;15.05;100.00;95456.28;5010518;28;20265;-67
2023/05/08 01:03:26;;;;;;;1999.90;999.90;;;;;;;15.03;100.00;95458.66;5010685;28;20226;-67
2023/05/08 01:05:53;;;;;;;1999.90;999.90;;;;;;;14.96;100.00;95453.34;5010430;28;20195;-67
2023/05/08 01:08:18;;;;;;;1999.90;999.90;;;;;;;14.90;100.00;95455.06;5010628;28;20233;-67
2023/05/08 01:10:52;;;;;;;1999.90;999.90;;;;;;;14.90;100.00;95455.06;5010903;28;20199;-68
2023/05/08 01:13:30;;;;;;;1999.90;999.90;;;;;;;14.83;100.00;95450.50;5010302;28;20225;-68
2023/05/08 01:16:14;;;;;;;1999.90;999.90;;;;;;;14.81;100.00;95450.16;5010810;28;20210;-67
2023/05/08 01:19:13;;;;;;;1999.90;999.90;;;;;;;14.75;100.00;95451.13;5011046;28;20167;-67
2023/05/08 01:21:49;;;;;;;1999.90;999.90;;;;;;;14.78;100.00;95453.75;4986340;28;20243;-67
2023/05/08 01:24:34;;;;;;;1999.90;999.90;;;;;;;14.77;100.00;95452.22;4970777;28;20208;-68
2023/05/08 01:27:35;;;;;;;1999.90;999.90;;;;;;;14.72;100.00;95452.72;4969921;28;20208;-67
2023/05/08 01:30:33;;;;;;;1999.90;999.90;;;;;;;14.79;100.00;95460.81;4970934;28;20216;-67
2023/05/08 01:33:06;;;;;;;1999.90;999.90;;;;;;;14.80;100.00;95456.88;4970146;28;20243;-67
2023/05/08 01:35:42;;;;;;;1999.90;999.90;;;;;;;14.83;100.00;95455.25;4970576;28;20271;-67
2023/05/08 01:38:21;;;;;;;1999.90;999.90;;;;;;;14.72;100.00;95455.47;4970401;28;20200;-66
2023/05/08 01:40:55;;;;;;;1999.90;999.90;;;;;;;14.72;100.00;95458.22;4970331;28;20200;-67
2023/05/08 01:43:29;;;;;;;1999.90;999.90;;;;;;;14.74;100.00;95464.06;4970100;28;20247;-67
2023/05/08 01:45:58;;;;;;;1999.90;999.90;;;;;;;14.66;100.00;95462.69;4970178;28;20219;-65
2023/05/08 01:48:30;;;;;;;1999.90;999.90;;;;;;;14.66;100.00;95457.19;4970561;28;20219;-65
2023/05/08 01:51:02;;;;;;;1999.90;999.90;;;;;;;14.69;100.00;95459.09;4970302;28;20200;-65
2023/05/08 01:53:33;;;;;;;1999.90;999.90;;;;;;;14.74;100.00;95457.78;5003820;28;20227;-66
2023/05/08 01:56:09;;;;;;;1999.90;999.90;;;;;;;14.67;100.00;95460.69;5010097;28;20249;-65
2023/05/08 01:58:36;;;;;;;1999.90;999.90;;;;;;;14.59;100.00;95460.09;5009490;28;20199;-66
2023/05/08 02:01:02;;;;;;;1999.90;999.90;;;;;;;14.67;100.00;95458.72;5009700;28;20195;-66
2023/05/08 02:03:30;;;;;;;1999.90;999.90;;;;;;;14.58;100.00;95447.56;5009234;28;20261;-66
2023/05/08 02:05:58;;;;;;;1999.90;999.90;;;;;;;14.48;100.00;95447.78;5009404;28;20218;-66
2023/05/08 02:08:25;;;;;;;1999.90;999.90;;;;;;;14.53;100.00;95450.06;5009164;28;20214;-65
2023/05/08 02:10:52;;;;;;;1999.90;999.90;;;;;;;14.41;100.00;95440.47;5009656;28;20199;-65
2023/05/08 02:13:20;;;;;;;1999.90;999.90;;;;;;;14.32;100.00;95442.28;5009588;28;20226;-65
2023/05/08 02:15:48;;;;;;;1999.90;999.90;;;;;;;14.21;100.00;95438.94;5009363;28;20195;-66
2023/05/08 02:18:17;;;;;;;1999.90;999.90;;;;;;;14.19;100.00;95447.59;5009089;28;20268;-66
2023/05/08 02:20:43;;;;;;;1999.90;999.90;;;;;;;14.12;100.00;95456.00;5009156;28;20198;-65
2023/05/08 02:23:09;;;;;;;1999.90;999.90;;;;;;;14.15;100.00;95444.16;5009086;28;20199;-64
2023/05/08 02:25:35;;;;;;;1999.90;999.90;;;;;;;14.21;100.00;95453.47;5008997;28;20195;-65
2023/05/08 02:28:02;;;;;;;1999.90;999.90;;;;;;;14.24;100.00;95449.88;5009462;28;20269;-65
2023/05/08 02:30:28;;;;;;;1999.90;999.90;;;;;;;14.22;100.00;95452.28;5009095;28;20201;-66
2023/05/08 02:32:55;;;;;;;1999.90;999.90;;;;;;;14.26;100.00;95447.50;5008534;28;20234;-66
2023/05/08 02:35:23;;;;;;;1999.90;999.90;;;;;;;14.15;100.00;95446.91;5008824;28;20207;-66
2023/05/08 02:37:54;;;;;;;1999.90;999.90;;;;;;;13.97;100.00;95449.25;5008602;28;20250;-66
2023/05/08 02:40:21;;;;;;;1999.90;999.90;;;;;;;13.98;100.00;95434.31;5008726;28;20210;-65
2023/05/08 02:42:46;;;;;;;1999.90;999.90;;;;;;;13.86;100.00;95453.41;5009055;28;20195;-65
2023/05/08 02:45:13;;;;;;;1999.90;999.90;;;;;;;14.04;100.00;95440.88;5008510;28;20210;-65
2023/05/08 02:47:48;;;;;;;1999.90;999.90;;;;;;;13.91;100.00;95452.91;5008598;28;20270;-65
2023/05/08 02:50:31;;;;;;;1999.90;999.90;;;;;;;13.96;100.00;95452.41;5008685;28;20199;-65
2023/05/08 02:53:03;;;;;;;1999.90;999.90;;;;;;;13.89;100.00;95453.34;5008546;28;20290;-65
2023/05/08 02:55:43;;;;;;;1999.90;999.90;;;;;;;13.69;100.00;95460.78;5008929;28;20176;-66
2023/05/08 02:58:19;;;;;;;1999.90;999.90;;;;;;;13.67;100.00;95456.91;5008771;28;20321;-66
2023/05/08 03:01:05;;;;;;;1999.90;999.90;;;;;;;13.66;100.00;95456.13;5008456;28;20507;-65
2023/05/08 03:03:40;;;;;;;1999.90;999.90;;;;;;;13.66;100.00;95449.88;5008521;28;20277;-66
2023/05/08 03:06:12;;;;;;;1999.90;999.90;;;;;;;13.73;100.00;95445.00;5008351;28;20202;-65
2023/05/08 03:08:39;;;;;;;1999.90;999.90;;;;;;;13.71;100.00;95441.94;5008168;28;20282;-65
2023/05/08 03:11:11;;;;;;;1999.90;999.90;;;;;;;13.57;100.00;95450.44;5008091;28;20199;-66
2023/05/08 03:13:40;;;;;;;1999.90;999.90;;;;;;;13.58;100.00;95437.50;5008606;28;20278;-66
2023/05/08 03:16:14;;;;;;;1999.90;999.90;;;;;;;13.51;100.00;95427.41;5008429;28;20195;-65
2023/05/08 03:18:58;;;;;;;1999.90;999.90;;;;;;;13.55;100.00;95417.13;5008358;28;20199;-65
2023/05/08 03:21:27;;;;;;;1999.90;999.90;;;;;;;13.64;100.00;95417.38;5008256;28;20194;-66
2023/05/08 03:23:55;;;;;;;1999.90;999.90;;;;;;;13.73;100.00;95417.56;5008017;28;20268;-66
2023/05/08 03:26:21;;;;;;;1999.90;999.90;;;;;;;13.70;100.00;95423.94;5007688;28;20195;-66
2023/05/08 03:28:48;;;;;;;1999.90;999.90;;;;;;;13.68;100.00;95417.28;5007910;28;20222;-66
2023/05/08 03:31:17;;;;;;;1999.90;999.90;;;;;;;13.70;100.00;95418.44;5008091;28;20195;-67
2023/05/08 03:33:44;;;;;;;1999.90;999.90;;;;;;;13.69;100.00;95419.63;5008147;28;20218;-66
2023/05/08 03:36:10;;;;;;;1999.90;999.90;;;;;;;13.55;100.00;95411.66;5008188;28;20226;-66
2023/05/08 03:38:36;;;;;;;1999.90;999.90;;;;;;;13.61;100.00;95409.19;5008319;28;20221;-66
2023/05/08 03:41:01;;;;;;;1999.90;999.90;;;;;;;13.64;100.00;95414.63;5008260;28;20199;-66
2023/05/08 03:43:28;;;;;;;1999.90;999.90;;;;;;;13.52;100.00;95407.03;5008461;28;20199;-67
2023/05/08 03:45:55;;;;;;;1999.90;999.90;;;;;;;13.63;100.00;95412.31;5007678;28;20207;-65
2023/05/08 03:48:21;;;;;;;1999.90;999.90;;;;;;;13.33;100.00;95408.53;5007713;28;20226;-66
2023/05/08 03:50:48;;;;;;;1999.90;999.90;;;;;;;13.46;100.00;95400.47;5006867;28;20245;-66
2023/05/08 03:53:13;;;;;;;1999.90;999.90;;;;;;;13.44;100.00;95413.81;5007560;28;20274;-66
2023/05/08 03:55:40;;;;;;;1999.90;999.90;;;;;;;13.23;100.00;95416.97;5007468;28;20202;-66
2023/05/08 03:58:31;;;;;;;1999.90;999.90;;;;;;;13.32;100.00;95421.91;5007825;28;20191;-66
2023/05/08 04:01:24;;;;;;;1999.90;999.90;;;;;;;13.34;100.00;95412.06;5008190;28;20237;-66
2023/05/08 04:03:59;;;;;;;1999.90;999.90;;;;;;;13.32;100.00;95430.91;5007811;28;20202;-66
2023/05/08 04:06:34;;;;;;;1999.90;999.90;;;;;;;13.28;100.00;95427.47;5007354;28;20202;-66
2023/05/08 04:09:16;;;;;;;1999.90;999.90;;;;;;;13.34;100.00;95428.53;5007879;28;20198;-66
2023/05/08 04:11:56;;;;;;;1999.90;999.90;;;;;;;13.33;100.00;95426.97;5007403;28;20309;-65
2023/05/08 04:14:26;;;;;;;1999.90;999.90;;;;;;;13.26;100.00;95421.63;5007328;28;20277;-65
2023/05/08 04:16:59;;;;;;;1999.90;999.90;;;;;;;13.22;100.00;95432.66;5007743;28;20222;-65
2023/05/08 04:19:28;;;;;;;1999.90;999.90;;;;;;;13.30;100.00;95422.34;5007696;28;20286;-65
2023/05/08 04:21:58;;;;;;;1999.90;999.90;;;;;;;13.34;100.00;95418.31;5007729;28;20205;-64
2023/05/08 04:24:26;;;;;;;1999.90;999.90;;;;;;;13.42;100.00;95418.97;5007244;28;20203;-62
2023/05/08 04:26:52;;;;;;;1999.90;999.90;;;;;;;13.30;100.00;95427.81;5007138;28;20214;-62
2023/05/08 04:29:18;;;;;;;1999.90;999.90;;;;;;;13.13;100.00;95417.94;5007734;28;20191;-63
2023/05/08 04:31:44;;;;;;;1999.90;999.90;;;;;;;13.12;100.00;95408.16;5007232;28;20225;-68
2023/05/08 04:34:11;;;;;;;1999.90;999.90;;;;;;;13.21;100.00;95419.34;5007254;28;20192;-68
2023/05/08 04:36:36;;;;;;;1999.90;999.90;;;;;;;13.12;100.00;95413.66;5007364;28;20191;-68
2023/05/08 04:39:02;;;;;;;1999.90;999.90;;;;;;;13.16;100.00;95417.09;5007196;28;20190;-70
2023/05/08 04:41:27;;;;;;;1999.90;999.90;;;;;;;13.01;100.00;95416.56;5007580;28;20215;-69
2023/05/08 04:43:53;;;;;;;1999.90;999.90;;;;;;;12.93;100.00;95411.63;5007066;28;20249;-71
2023/05/08 04:46:18;;;;;;;1999.90;999.90;;;;;;;13.04;100.00;95388.31;5007021;28;20198;-69
2023/05/08 04:48:44;;;;;;;1999.90;999.90;;;;;;;12.94;100.00;95380.25;5007006;28;20206;-76
2023/05/08 04:51:09;;;;;;;1999.90;999.90;;;;;;;13.00;100.00;95365.69;5007166;28;20195;-69
2023/05/08 04:53:34;;;;;;;1999.90;999.90;;;;;;;12.99;100.00;95358.66;5006995;28;20207;-68
2023/05/08 04:56:00;;;;;;;1999.90;999.90;;;;;;;13.04;100.00;95338.22;5007240;28;20205;-69
2023/05/08 04:58:25;;;;;;;1999.90;999.90;;;;;;;12.85;100.00;95336.94;5007022;28;20306;-68
2023/05/08 05:00:50;;;;;;;1999.90;999.90;;;;;;;12.79;100.00;95332.38;5007399;28;20282;-68
2023/05/08 05:03:16;;;;;;;1999.90;999.90;;;;;;;12.74;100.00;95319.13;5009711;28;20209;-68
2023/05/08 05:05:41;;;;;;;1999.90;999.90;;;;;;;12.83;100.00;95291.97;5010427;28;20198;-69
2023/05/08 05:08:07;;;;;;;1999.90;999.90;;;;;;;12.87;100.00;95277.00;5010849;28;20203;-68
2023/05/08 05:10:32;;;;;;;1999.90;999.90;;;;;;;12.68;100.00;95266.03;5010896;28;20182;-68
2023/05/08 05:12:57;;;;;;;1999.90;999.90;;;;;;;12.69;100.00;95240.16;5010763;28;20214;-68
2023/05/08 05:15:23;;;;;;;1999.90;999.90;;;;;;;12.80;100.00;95196.88;5010843;28;20226;-67
2023/05/08 05:17:48;;;;;;;1999.90;999.90;;;;;;;12.70;100.00;95195.13;5010589;28;20201;-67
2023/05/08 05:20:13;;;;;;;1999.90;999.90;;;;;;;12.61;100.00;95104.53;5010126;28;20205;-67
2023/05/08 05:22:39;;;;;;;1999.90;999.90;;;;;;;12.66;100.00;95043.75;5010442;28;20199;-68
2023/05/08 05:25:05;;;;;;;1999.90;999.90;;;;;;;12.56;100.00;95018.13;5010065;28;20193;-66
2023/05/08 05:27:30;;;;;;;1999.90;999.90;;;;;;;12.48;100.00;95000.31;5010102;28;20198;-67
2023/05/08 05:29:56;;;;;;;1999.90;999.90;;;;;;;12.48;100.00;94977.63;5009944;28;20209;-67
2023/05/08 05:32:22;;;;;;;1999.90;999.90;;;;;;;12.35;100.00;94968.53;5009988;28;20218;-66
2023/05/08 05:34:47;;;;;;;1999.90;999.90;;;;;;;12.33;100.00;94947.06;5010111;28;20226;-69
2023/05/08 05:37:12;;;;;;;1999.90;999.90;;;;;;;12.32;100.00;94947.47;5010192;28;20198;-70
2023/05/08 05:39:38;;;;;;;1999.90;999.90;;;;;;;12.40;100.00;94933.22;5009707;28;20194;-70
2023/05/08 05:42:03;;;;;;;1999.90;999.90;;;;;;;12.27;100.00;94928.78;5010221;28;20175;-67
2023/05/08 05:44:28;;;;;;;1999.90;999.90;;;;;;;12.26;100.00;94921.78;5009860;28;20245;-68
2023/05/08 05:46:54;;;;;;;1999.90;999.90;;;;;;;12.34;100.00;94901.25;5009549;28;20326;-67
2023/05/08 05:49:19;;;;;;;1999.90;999.90;;;;;;;12.29;100.00;94893.56;5009584;28;20195;-68
2023/05/08 05:51:44;;;;;;;1999.90;999.90;;;;;;;12.21;100.00;94799.13;5009306;28;20218;-67
2023/05/08 05:54:10;;;;;;;1999.90;999.90;;;;;;;12.37;100.00;94797.13;5009565;28;20198;-71
2023/05/08 05:56:35;;;;;;;1999.90;999.90;;;;;;;12.39;100.00;94761.13;5009316;28;20195;-69
2023/05/08 05:59:00;;;;;;;1999.90;999.90;;;;;;;12.39;100.00;94777.53;5009482;28;20202;-68
2023/05/08 06:01:27;;;;;;;1999.90;999.90;;;;;;;12.25;100.00;94784.16;5009174;28;20195;-75
2023/05/08 06:03:53;;;;;;;1999.90;999.90;;;;;;;12.30;100.00;94791.06;5009333;28;20267;-71
2023/05/08 06:06:18;;;;;;;1999.90;999.90;;;;;;;12.34;100.00;94802.69;5009073;28;20198;-75
2023/05/08 06:08:44;;;;;;;1999.90;999.90;;;;;;;12.48;100.00;94796.88;5009210;28;20198;-74
2023/05/08 06:11:10;;;;;;;1999.90;999.90;;;;;;;12.34;100.00;94824.59;5009054;28;20278;-76
2023/05/08 06:13:38;;;;;;;1999.90;999.90;;;;;;;12.52;100.00;94830.41;5008800;28;20237;-69
2023/05/08 06:16:04;;;;;;;1999.90;999.90;;;;;;;12.70;100.00;94837.00;5009469;28;20265;-72
2023/05/08 06:18:30;;;;;;;1999.90;999.90;;;;;;;12.62;100.00;94884.16;5008918;28;20209;-68
2023/05/08 06:20:59;;;;;;;1999.90;999.90;;;;;;;12.54;100.00;94921.91;5009448;28;20195;-71
2023/05/08 06:23:25;;;;;;;1999.90;999.90;;;;;;;12.32;100.00;94972.13;5008971;28;20218;-70
2023/05/08 06:25:51;;;;;;;1999.90;999.90;;;;;;;12.39;100.00;94982.91;5009317;28;20202;-68
2023/05/08 06:28:17;;;;;;;1999.90;999.90;;;;;;;12.48;100.00;95005.00;5009069;28;20273;-70
2023/05/08 06:30:43;;;;;;;1999.90;999.90;;;;;;;12.52;100.00;95022.13;5008574;28;20233;-70
2023/05/08 06:33:08;;;;;;;1999.90;999.90;;;;;;;12.46;100.00;95034.81;5008734;28;20504;-69
2023/05/08 06:35:34;;;;;;;1999.90;999.90;;;;;;;12.50;100.00;95054.66;5008676;28;20199;-69
2023/05/08 06:38:00;;;;;;;1999.90;999.90;;;;;;;12.52;100.00;95066.75;5008470;28;20199;-71
2023/05/08 06:40:25;;;;;;;1999.90;999.90;;;;;;;12.47;100.00;95069.19;5008218;28;20202;-69
2023/05/08 06:42:51;;;;;;;1999.90;999.90;;;;;;;12.60;100.00;95072.81;5009103;28;20206;-70
2023/05/08 06:45:16;;;;;;;1999.90;999.90;;;;;;;12.61;100.00;95074.38;5008837;28;20289;-70
2023/05/08 06:47:41;;;;;;;1999.90;999.90;;;;;;;12.74;100.00;95083.47;5008390;28;20195;-70
2023/05/08 06:50:07;;;;;;;1999.90;999.90;;;;;;;12.48;100.00;95092.66;5008890;28;20195;-68
2023/05/08 06:52:32;;;;;;;1999.90;999.90;;;;;;;12.52;100.00;95093.34;5008164;28;20278;-68
2023/05/08 06:54:58;;;;;;;1999.90;999.90;;;;;;;12.67;100.00;95083.63;5008402;28;20339;-67
2023/05/08 06:57:25;;;;;;;1999.90;999.90;;;;;;;12.75;100.00;95096.00;5008382;28;20202;-68
2023/05/08 06:59:52;;;;;;;1999.90;999.90;;;;;;;12.66;100.00;95114.97;5008237;28;20206;-69
2023/05/08 07:02:17;;;;;;;1999.90;999.90;;;;;;;12.92;100.00;95123.03;5008240;28;20226;-69
2023/05/08 07:04:43;;;;;;;1999.90;999.90;;;;;;;12.97;100.00;95149.16;5008263;28;20187;-67
2023/05/08 07:07:08;;;;;;;1999.90;999.90;;;;;;;13.16;100.00;95159.34;5008360;28;20195;-67
2023/05/08 07:09:34;;;;;;;1999.90;999.90;;;;;;;13.29;100.00;95187.66;5007961;28;20265;-64
2023/05/08 07:11:59;;;;;;;1999.90;999.90;;;;;;;13.71;100.00;95207.88;5008301;28;20286;-65
2023/05/08 07:14:26;;;;;;;1999.90;999.90;;;;;;;13.56;100.00;95287.00;5008065;28;20195;-67
2023/05/08 07:16:51;;;;;;;1999.90;999.90;;;;;;;13.42;100.00;95331.19;5008373;28;20314;-60
2023/05/08 07:19:16;;;;;;;1999.90;999.90;;;;;;;13.57;100.00;95357.13;5008418;28;20199;-60
2023/05/08 07:21:42;;;;;;;1999.90;999.90;;;;;;;13.97;100.00;95388.84;5008462;28;20267;-61
2023/05/08 07:24:07;;;;;;;1999.90;999.90;;;;;;;13.74;100.00;95443.06;5007727;28;20191;-60
2023/05/08 07:26:33;;;;;;;1999.90;999.90;;;;;;;13.98;100.00;95472.75;5008103;28;20190;-61
2023/05/08 07:28:58;;;;;;;1999.90;999.90;;;;;;;14.24;100.00;95496.56;5007975;28;20191;-61
2023/05/08 07:31:24;;;;;;;1999.90;999.90;;;;;;;14.37;100.00;95527.72;5007800;28;20186;-61
2023/05/08 07:33:49;;;;;;;1999.90;999.90;;;;;;;14.57;100.00;95542.19;5007899;28;20214;-67
2023/05/08 07:36:14;;;;;;;1999.90;999.90;;;;;;;14.32;100.00;95580.44;5007839;28;20195;-67
2023/05/08 07:38:40;;;;;;;1999.90;999.90;;;;;;;13.97;100.00;95597.53;5007831;28;20266;-69
2023/05/08 07:41:05;;;;;;;1999.90;999.90;;;;;;;13.75;100.00;95590.84;5007724;28;20193;-68
2023/05/08 07:43:31;;;;;;;1999.90;999.90;;;;;;;14.04;100.00;95571.91;5007565;28;20210;-67
2023/05/08 07:45:57;;;;;;;1999.90;999.90;;;;;;;13.82;100.00;95593.47;5007750;28;20274;-66
2023/05/08 07:48:23;;;;;;;1999.90;999.90;;;;;;;13.44;100.00;95592.16;5008017;28;20198;-67
2023/05/08 07:50:49;;;;;;;1999.90;999.90;;;;;;;13.71;100.00;95581.91;5008027;28;20194;-67
2023/05/08 07:53:14;;;;;;;1999.90;999.90;;;;;;;13.78;100.00;95589.25;5007757;28;20203;-66
2023/05/08 07:55:40;;;;;;;1999.90;999.90;;;;;;;14.43;100.00;95594.72;5007516;28;20204;-67
2023/05/08 07:58:05;;;;;;;1999.90;999.90;;;;;;;14.66;100.00;95599.34;5007397;28;20305;-67
2023/05/08 08:00:31;;;;;;;1999.90;999.90;;;;;;;15.20;100.00;95612.31;5007547;28;20199;-68
2023/05/08 08:02:56;;;;;;;1999.90;999.90;;;;;;;14.85;100.00;95646.09;5007415;28;20190;-70
2023/05/08 08:05:22;;;;;;;1999.90;999.90;;;;;;;15.18;100.00;95661.50;5007747;28;20233;-69
2023/05/08 08:07:47;;;;;;;1999.90;999.90;;;;;;;15.29;100.00;95670.28;5007690;28;20246;-68
2023/05/08 08:10:13;;;;;;;1999.90;999.90;;;;;;;15.16;100.00;95674.88;5007170;28;20195;-68
2023/05/08 08:12:38;;;;;;;1999.90;999.90;;;;;;;15.60;100.00;95679.84;5007210;28;20211;-68
2023/05/08 08:15:05;;;;;;;1999.90;999.90;;;;;;;15.83;100.00;95698.97;5007893;28;20201;-67
2023/05/08 08:17:30;;;;;;;1999.90;999.90;;;;;;;15.17;100.00;95700.44;5007315;28;20208;-68
2023/05/08 08:19:56;;;;;;;1999.90;999.90;;;;;;;15.40;100.00;95703.88;5007458;28;20261;-67
2023/05/08 08:22:22;;;;;;;1999.90;999.90;;;;;;;15.76;100.00;95701.09;5007565;28;20222;-67
2023/05/08 08:24:48;;;;;;;1999.90;999.90;;;;;;;15.52;100.00;95705.97;5007148;28;20249;-69
2023/05/08 08:27:13;;;;;;;1999.90;999.90;;;;;;;16.30;100.00;95702.16;5007487;28;20226;-67
2023/05/08 08:29:39;;;;;;;1999.90;999.90;;;;;;;16.27;100.00;95717.56;5007239;28;20199;-67
2023/05/08 08:32:04;;;;;;;1999.90;999.90;;;;;;;15.90;100.00;95722.81;5007129;28;20219;-69
2023/05/08 08:34:32;;;;;;;1999.90;999.90;;;;;;;16.38;100.00;95726.34;5007074;28;20191;-67
2023/05/08 08:36:57;;;;;;;1999.90;999.90;;;;;;;16.51;100.00;95736.72;5008118;28;20266;-67
2023/05/08 08:39:22;;;;;;;1999.90;999.90;;;;;;;16.09;100.00;95733.78;5011204;28;20253;-68
2023/05/08 08:41:48;;;;;;;1999.90;999.90;;;;;;;16.24;100.00;95736.94;5010847;28;20203;-68
2023/05/08 08:44:13;;;;;;;1999.90;999.90;;;;;;;17.16;100.00;95736.13;5010688;28;20203;-69
2023/05/08 08:46:47;;;;;;;1999.90;999.90;;;;;;;16.89;100.00;95748.72;5011380;28;20167;-68
2023/05/08 08:49:14;;;;;;;1999.90;999.90;;;;;;;16.98;100.00;95743.34;5010991;28;20199;-68
2023/05/08 08:51:49;;;;;;;1999.90;999.90;;;;;;;17.36;100.00;95742.25;5010693;28;20202;-68
2023/05/08 08:54:20;;;;;;;1999.90;999.90;;;;;;;17.49;100.00;95736.78;5010924;28;20195;-68
2023/05/08 08:56:48;;;;;;;1999.90;999.90;;;;;;;18.17;100.00;95740.56;5010888;28;20245;-67
2023/05/08 08:59:15;;;;;;;1999.90;999.90;;;;;;;18.72;100.00;95737.19;5010384;28;20218;-67
2023/05/08 09:01:43;;;;;;;1999.90;999.90;;;;;;;19.37;100.00;95737.28;5010606;28;20226;-66
2023/05/08 09:04:09;;;;;;;1999.90;999.90;;;;;;;19.05;100.00;95737.63;5010375;28;20195;-66
2023/05/08 09:06:37;;;;;;;1999.90;999.90;;;;;;;19.07;100.00;95746.25;5010558;28;20270;-68
2023/05/08 09:09:03;;;;;;;1999.90;999.90;;;;;;;19.07;100.00;95743.47;5010345;28;20183;-67
2023/05/08 09:11:28;;;;;;;1999.90;999.90;;;;;;;18.82;100.00;95746.34;5010830;28;20242;-67
2023/05/08 09:13:54;;;;;;;1999.90;999.90;;;;;;;19.59;100.00;95743.56;5009986;28;20207;-69
2023/05/08 09:16:21;;;;;;;1999.90;999.90;;;;;;;19.91;100.00;95737.59;5010664;28;20274;-69
2023/05/08 09:18:46;;;;;;;1999.90;999.90;;;;;;;19.95;100.00;95738.22;5010455;28;20269;-70
2023/05/08 09:21:12;;;;;;;1999.90;999.90;;;;;;;19.30;100.00;95746.63;5010497;28;20195;-70
2023/05/08 09:23:53;;;;;;;1999.90;999.90;;;;;;;19.41;100.00;95743.44;5010087;28;20258;-69
2023/05/08 09:26:31;;;;;;;1999.90;999.90;;;;;;;19.03;100.00;95754.69;5010381;28;20283;-69
2023/05/08 09:29:23;;;;;;;1999.90;999.90;;;;;;;19.00;100.00;95749.25;5010245;28;20237;-67
2023/05/08 09:31:50;;;;;;;1999.90;999.90;;;;;;;19.28;100.00;95745.53;5010364;28;20223;-69
2023/05/08 09:34:27;;;;;;;1999.90;999.90;;;;;;;20.54;100.00;95746.16;5010436;28;20202;-69
2023/05/08 09:37:04;;;;;;;1999.90;999.90;;;;;;;21.83;100.00;95739.75;5009588;28;20206;-71
2023/05/08 09:39:30;;;;;;;1999.90;999.90;;;;;;;20.98;100.00;95744.72;5010179;28;20191;-70
2023/05/08 09:42:00;;;;;;;1999.90;999.90;;;;;;;20.40;100.00;95755.06;5009663;28;20222;-70
2023/05/08 09:44:25;;;;;;;1999.90;999.90;;;;;;;20.65;100.00;95746.50;5009896;28;20245;-70
2023/05/08 09:46:51;;;;;;;1999.90;999.90;;;;;;;20.84;100.00;95752.84;5009826;28;20191;-68
2023/05/08 09:49:17;;;;;;;1999.90;999.90;;;;;;;20.42;100.00;95747.06;5008366;28;20198;-68
2023/05/08 09:51:53;;;;;;;1999.90;999.90;;;;;;;21.25;100.00;95757.84;5009245;28;20194;-70
2023/05/08 09:54:18;;;;;;;1999.90;999.90;;;;;;;21.15;100.00;95745.19;5009944;28;20218;-69
2023/05/08 09:56:44;;;;;;;1999.90;999.90;;;;;;;21.71;100.00;95749.00;5009886;28;20199;-68
2023/05/08 09:59:27;;;;;;;1999.90;999.90;;;;;;;22.22;100.00;95746.25;5009630;28;20195;-68
2023/05/08 10:01:53;;;;;;;1999.90;999.90;;;;;;;22.63;100.00;95739.09;5009230;28;20201;-69
2023/05/08 10:04:32;;;;;;;1999.90;999.90;;;;;;;21.84;100.00;95749.63;5009517;28;20199;-69
2023/05/08 10:06:57;;;;;;;1999.90;999.90;;;;;;;22.54;100.00;95745.47;5009255;28;20186;-69
2023/05/08 10:09:23;;;;;;;1999.90;999.90;;;;;;;22.87;100.00;95742.69;5009417;28;20233;-68
2023/05/08 10:11:51;;;;;;;1999.90;999.90;;;;;;;23.25;100.00;95739.94;5009424;28;20214;-66
2023/05/08 10:14:17;;;;;;;1999.90;999.90;;;;;;;22.87;100.00;95735.06;5008781;28;20230;-67
2023/05/08 10:16:43;;;;;;;1999.90;999.90;;;;;;;21.75;100.00;95746.84;5009688;28;20199;-69
2023/05/08 10:19:15;;;;;;;1999.90;999.90;;;;;;;21.78;100.00;95742.38;5008959;28;20213;-68
2023/05/08 10:21:45;;;;;;;1999.90;999.90;;;;;;;21.09;100.00;95745.03;5009260;28;20257;-67
2023/05/08 10:24:19;;;;;;;1999.90;999.90;;;;;;;21.16;100.00;95746.75;5008854;28;20262;-65
2023/05/08 10:26:55;;;;;;;1999.90;999.90;;;;;;;20.71;100.00;95747.44;5008950;28;20226;-66
2023/05/08 10:29:27;;;;;;;1999.90;999.90;;;;;;;20.48;100.00;95750.78;5009675;28;20187;-65
2023/05/08 10:31:54;;;;;;;1999.90;999.90;;;;;;;20.12;100.00;95752.66;5008610;28;20227;-67
2023/05/08 10:34:21;;;;;;;1999.90;999.90;;;;;;;20.33;100.00;95740.72;5008836;28;20199;-67
2023/05/08 10:36:47;;;;;;;1999.90;999.90;;;;;;;20.58;100.00;95746.78;5008654;28;20198;-67
2023/05/08 10:39:16;;;;;;;1999.90;999.90;;;;;;;20.33;100.00;95744.28;5009382;28;20282;-67
2023/05/08 10:41:42;;;;;;;1999.90;999.90;;;;;;;20.26;100.00;95738.22;5009149;28;20267;-67
2023/05/08 10:44:09;;;;;;;1999.90;999.90;;;;;;;20.38;100.00;95743.66;5008657;28;20202;-66
2023/05/08 10:46:56;;;;;;;1999.90;999.90;;;;;;;21.30;100.00;95738.53;5008662;28;20191;-67
2023/05/08 10:49:39;;;;;;;1999.90;999.90;;;;;;;20.77;100.00;95737.28;5008597;28;20191;-67
2023/05/08 10:52:13;;;;;;;1999.90;999.90;;;;;;;20.72;100.00;95740.66;5008403;28;20211;-66